Time;durP1;ratioP1;P1;durP2;ratioP2;P2;SDS_P1;SDS_P2;PMS_P1;PMS_P2;Temp;Humidity;BMP_temperature;BMP_pressure;BME280_temperature;BME280_humidity;BME280_pressure;Samples;Min_cycle;Max_cycle;Signal;HPM_P1;HPM_P2
2021/03/15 00:01:58;;;;;;;50.70;18.08;;;;;;;;;;8259847;28;20336;-68
2021/03/15 00:06:04;;;;;;;37.47;15.25;;;;;;;;;;8258127;28;20044;-68
2021/03/15 00:10:11;;;;;;;35.67;13.60;;;;;;;;;;8259386;28;20057;-68
2021/03/15 00:14:15;;;;;;;31.10;12.68;;;;;;;;;;8259099;28;20470;-68
2021/03/15 00:18:20;;;;;;;31.73;13.13;;;;;;;;;;8257691;28;20372;-67
2021/03/15 00:22:25;;;;;;;30.90;13.23;;;;;;;;;;8257708;28;20470;-67
2021/03/15 00:26:29;;;;;;;32.30;11.90;;;;;;;;;;8258933;28;20379;-67
2021/03/15 00:30:33;;;;;;;36.53;14.93;;;;;;;;;;8258179;28;20444;-68
2021/03/15 00:34:38;;;;;;;32.67;12.77;;;;;;;;;;8257694;28;20463;-68
2021/03/15 00:38:42;;;;;;;36.25;16.27;;;;;;;;;;8259088;28;20423;-68
2021/03/15 00:42:47;;;;;;;43.88;16.67;;;;;;;;;;8257758;28;20452;-67
2021/03/15 00:46:50;;;;;;;259.50;49.20;;;;;;;;;;8260270;28;20466;-67
2021/03/15 00:50:54;;;;;;;60.17;22.17;;;;;;;;;;8257519;28;20577;-68
2021/03/15 00:54:59;;;;;;;42.88;16.38;;;;;;;;;;8258125;28;20472;-68
2021/03/15 00:59:06;;;;;;;31.45;14.77;;;;;;;;;;8257151;28;20120;-68
2021/03/15 01:03:18;;;;;;;40.25;15.75;;;;;;;;;;8244687;28;20348;-67
2021/03/15 01:07:28;;;;;;;33.72;14.48;;;;;;;;;;8255880;28;20379;-68
2021/03/15 01:11:32;;;;;;;31.75;13.57;;;;;;;;;;8258064;28;20483;-67
2021/03/15 01:15:43;;;;;;;32.63;14.15;;;;;;;;;;8258766;28;20384;-66
2021/03/15 01:19:47;;;;;;;44.92;16.52;;;;;;;;;;8255836;28;20053;-67
2021/03/15 01:23:52;;;;;;;34.60;14.65;;;;;;;;;;8256982;28;20041;-67
2021/03/15 01:27:56;;;;;;;31.90;13.57;;;;;;;;;;8256535;28;20480;-67
2021/03/15 01:32:01;;;;;;;36.67;15.07;;;;;;;;;;8256771;28;20459;-68
2021/03/15 01:36:07;;;;;;;40.15;15.30;;;;;;;;;;8256865;28;20414;-67
2021/03/15 01:40:13;;;;;;;31.20;13.60;;;;;;;;;;8256275;28;20058;-67
2021/03/15 01:44:17;;;;;;;33.40;14.68;;;;;;;;;;8254911;28;20357;-67
2021/03/15 01:48:22;;;;;;;30.13;13.85;;;;;;;;;;8263484;28;20368;-67
2021/03/15 01:52:27;;;;;;;46.60;16.08;;;;;;;;;;8262356;28;20490;-68
2021/03/15 01:56:32;;;;;;;36.58;14.85;;;;;;;;;;8261691;28;20071;-67
2021/03/15 02:00:37;;;;;;;37.45;15.45;;;;;;;;;;8263225;28;20436;-67
2021/03/15 02:04:42;;;;;;;39.42;15.52;;;;;;;;;;8260794;28;20681;-67
2021/03/15 02:09:04;;;;;;;41.40;15.93;;;;;;;;;;8263331;28;20475;-67
2021/03/15 02:13:55;;;;;;;33.42;13.80;;;;;;;;;;8261398;28;20470;-66
2021/03/15 02:18:24;;;;;;;35.13;14.82;;;;;;;;;;8261579;28;20064;-66
2021/03/15 02:23:12;;;;;;;34.85;15.70;;;;;;;;;;8262772;28;20456;-67
2021/03/15 02:28:12;;;;;;;38.47;16.08;;;;;;;;;;8261248;28;20406;-67
2021/03/15 02:32:51;;;;;;;36.53;16.20;;;;;;;;;;8254072;28;20459;-67
2021/03/15 02:36:58;;;;;;;39.38;16.75;;;;;;;;;;8260408;28;20053;-66
2021/03/15 02:41:04;;;;;;;51.15;18.98;;;;;;;;;;8258408;28;20467;-67
2021/03/15 02:45:09;;;;;;;41.22;17.73;;;;;;;;;;8260810;28;20376;-66
2021/03/15 02:49:17;;;;;;;42.47;19.35;;;;;;;;;;8259427;28;20498;-67
2021/03/15 02:53:22;;;;;;;50.08;18.15;;;;;;;;;;8260280;28;20459;-67
2021/03/15 02:57:32;;;;;;;44.53;17.80;;;;;;;;;;8259111;28;20053;-67
2021/03/15 03:01:39;;;;;;;38.38;17.38;;;;;;;;;;8258918;28;20467;-67
2021/03/15 03:05:46;;;;;;;35.70;17.10;;;;;;;;;;8258160;28;20475;-67
2021/03/15 03:09:54;;;;;;;48.22;19.02;;;;;;;;;;8258890;28;20071;-67
2021/03/15 03:14:02;;;;;;;39.97;17.30;;;;;;;;;;8258629;28;20463;-67
2021/03/15 03:18:08;;;;;;;48.72;19.42;;;;;;;;;;8261106;28;20453;-67
2021/03/15 03:22:15;;;;;;;47.63;19.42;;;;;;;;;;8258016;28;20045;-67
2021/03/15 03:26:27;;;;;;;49.60;21.13;;;;;;;;;;8258237;28;20364;-67
2021/03/15 03:30:37;;;;;;;42.95;19.83;;;;;;;;;;8258339;28;20490;-68
2021/03/15 03:34:43;;;;;;;45.05;20.65;;;;;;;;;;8257701;28;20048;-68
2021/03/15 03:38:48;;;;;;;53.67;22.85;;;;;;;;;;8256766;28;20467;-68
2021/03/15 03:42:51;;;;;;;47.65;21.10;;;;;;;;;;8258199;28;20052;-67
2021/03/15 03:46:55;;;;;;;46.10;20.52;;;;;;;;;;8259221;28;20040;-67
2021/03/15 03:51:00;;;;;;;52.78;22.27;;;;;;;;;;8258910;28;20071;-67
2021/03/15 03:55:09;;;;;;;55.65;23.55;;;;;;;;;;8241007;28;20477;-67
2021/03/15 03:59:17;;;;;;;52.08;22.13;;;;;;;;;;8257395;28;20383;-68
2021/03/15 04:03:23;;;;;;;52.15;22.05;;;;;;;;;;8257748;28;20052;-67
2021/03/15 04:07:29;;;;;;;53.15;22.25;;;;;;;;;;8257401;28;20376;-67
2021/03/15 04:11:35;;;;;;;49.92;20.88;;;;;;;;;;8257383;28;20475;-69
2021/03/15 04:15:45;;;;;;;53.78;22.08;;;;;;;;;;8256670;28;20060;-68
2021/03/15 04:19:58;;;;;;;52.55;21.27;;;;;;;;;;8258618;28;20453;-69
2021/03/15 04:24:05;;;;;;;50.45;23.27;;;;;;;;;;8256615;28;20387;-68
2021/03/15 04:28:11;;;;;;;52.58;22.88;;;;;;;;;;8256616;28;20322;-68
2021/03/15 04:32:16;;;;;;;56.15;22.27;;;;;;;;;;8256718;28;20461;-68
2021/03/15 04:36:22;;;;;;;66.43;24.13;;;;;;;;;;8256255;28;20464;-69
2021/03/15 04:40:29;;;;;;;56.90;22.17;;;;;;;;;;8255486;28;20361;-69
2021/03/15 04:44:38;;;;;;;47.40;21.13;;;;;;;;;;8259776;28;20082;-69
2021/03/15 04:48:43;;;;;;;55.42;23.08;;;;;;;;;;8256839;28;20368;-67
2021/03/15 04:52:48;;;;;;;51.80;22.73;;;;;;;;;;8255954;28;20080;-68
2021/03/15 04:56:54;;;;;;;64.22;24.00;;;;;;;;;;8255379;28;20440;-69
2021/03/15 05:01:02;;;;;;;56.10;22.45;;;;;;;;;;8255756;28;20483;-69
2021/03/15 05:05:09;;;;;;;55.85;23.73;;;;;;;;;;8256156;28;20386;-69
2021/03/15 05:09:14;;;;;;;47.35;23.45;;;;;;;;;;8255459;28;20432;-69
2021/03/15 05:13:19;;;;;;;58.83;22.73;;;;;;;;;;8256054;28;20053;-68
2021/03/15 05:17:23;;;;;;;61.67;22.67;;;;;;;;;;8257030;28;20471;-68
2021/03/15 05:21:29;;;;;;;56.72;23.25;;;;;;;;;;8258014;28;20463;-69
2021/03/15 05:25:35;;;;;;;70.43;26.42;;;;;;;;;;8261433;28;20498;-68
2021/03/15 05:29:41;;;;;;;59.17;23.92;;;;;;;;;;8261433;28;20053;-68
2021/03/15 05:33:46;;;;;;;61.20;25.48;;;;;;;;;;8261686;28;20491;-69
2021/03/15 05:37:51;;;;;;;59.10;25.48;;;;;;;;;;8263723;28;20045;-68
2021/03/15 05:41:58;;;;;;;57.60;24.55;;;;;;;;;;8263723;28;20352;-69
2021/03/15 05:46:17;;;;;;;81.82;30.30;;;;;;;;;;8264028;28;20083;-69
2021/03/15 05:50:59;;;;;;;75.65;29.73;;;;;;;;;;8262545;28;20388;-69
2021/03/15 05:55:36;;;;;;;78.20;31.55;;;;;;;;;;8262420;28;20455;-69
2021/03/15 06:00:00;;;;;;;83.03;33.67;;;;;;;;;;8261163;28;20467;-70
2021/03/15 06:04:46;;;;;;;97.75;35.97;;;;;;;;;;8264226;28;20364;-69
2021/03/15 06:09:01;;;;;;;84.70;32.53;;;;;;;;;;8261786;28;20048;-70
2021/03/15 06:13:16;;;;;;;88.07;32.00;;;;;;;;;;8260302;28;20379;-68
2021/03/15 06:17:21;;;;;;;81.65;33.03;;;;;;;;;;8261562;28;20387;-69
2021/03/15 06:21:26;;;;;;;74.20;31.02;;;;;;;;;;8262683;28;20360;-68
2021/03/15 06:25:31;;;;;;;74.55;31.70;;;;;;;;;;8261548;28;20448;-70
2021/03/15 06:29:36;;;;;;;80.38;32.42;;;;;;;;;;8261070;28;20376;-68
2021/03/15 06:33:44;;;;;;;82.68;36.33;;;;;;;;;;8260927;28;20464;-69
2021/03/15 06:37:48;;;;;;;69.85;31.40;;;;;;;;;;8259031;28;20415;-69
2021/03/15 06:41:57;;;;;;;71.38;31.98;;;;;;;;;;8258577;28;20388;-69
2021/03/15 06:46:01;;;;;;;73.80;30.13;;;;;;;;;;8260458;28;20049;-69
2021/03/15 06:50:10;;;;;;;77.93;33.95;;;;;;;;;;8261111;28;20056;-69
2021/03/15 06:54:25;;;;;;;64.10;28.52;;;;;;;;;;8260591;28;20053;-69
2021/03/15 06:58:32;;;;;;;80.88;37.72;;;;;;;;;;8259967;28;20418;-69
2021/03/15 07:02:37;;;;;;;70.43;30.33;;;;;;;;;;8260240;28;20411;-69
2021/03/15 07:06:45;;;;;;;68.18;31.52;;;;;;;;;;8259018;28;20495;-69
2021/03/15 07:10:50;;;;;;;60.88;29.23;;;;;;;;;;8258787;28;20383;-71
2021/03/15 07:15:06;;;;;;;64.60;27.60;;;;;;;;;;8259267;28;20368;-69
2021/03/15 07:19:25;;;;;;;66.93;27.95;;;;;;;;;;8258860;28;20329;-70
2021/03/15 07:23:48;;;;;;;47.83;21.95;;;;;;;;;;8260173;28;20489;-69
2021/03/15 07:27:53;;;;;;;52.22;24.02;;;;;;;;;;8259680;28;20057;-70
2021/03/15 07:31:58;;;;;;;43.15;21.70;;;;;;;;;;8260348;28;20471;-71
2021/03/15 07:36:11;;;;;;;39.80;20.33;;;;;;;;;;8259829;28;20474;-70
2021/03/15 07:40:48;;;;;;;61.25;25.52;;;;;;;;;;8257729;28;20463;-71
2021/03/15 07:44:53;;;;;;;37.38;18.85;;;;;;;;;;8257701;28;20162;-69
2021/03/15 07:48:58;;;;;;;38.28;17.00;;;;;;;;;;8256736;28;20364;-71
2021/03/15 07:53:04;;;;;;;30.23;15.40;;;;;;;;;;8257724;28;20372;-70
2021/03/15 07:57:20;;;;;;;8.52;5.18;;;;;;;;;;8257072;28;20452;-70
2021/03/15 08:01:25;;;;;;;11.82;6.18;;;;;;;;;;8259410;28;20470;-69
2021/03/15 08:05:29;;;;;;;9.85;5.45;;;;;;;;;;8258024;28;20374;-70
2021/03/15 08:09:34;;;;;;;12.23;5.82;;;;;;;;;;8259841;28;20399;-70
2021/03/15 08:13:56;;;;;;;14.65;5.53;;;;;;;;;;8257107;28;20459;-71
2021/03/15 08:18:02;;;;;;;9.65;5.30;;;;;;;;;;8257237;28;20387;-70
2021/03/15 08:22:09;;;;;;;8.82;3.92;;;;;;;;;;8257146;28;20059;-69
2021/03/15 08:26:15;;;;;;;11.55;5.00;;;;;;;;;;8256931;28;20468;-70
2021/03/15 08:30:30;;;;;;;12.80;6.18;;;;;;;;;;8259278;28;20367;-69
2021/03/15 08:34:38;;;;;;;10.02;5.25;;;;;;;;;;8255510;28;20368;-70
2021/03/15 08:38:42;;;;;;;17.33;8.23;;;;;;;;;;8257037;28;20052;-70
2021/03/15 08:42:45;;;;;;;10.45;6.20;;;;;;;;;;8256595;28;20407;-69
2021/03/15 08:46:49;;;;;;;16.98;8.13;;;;;;;;;;8256004;28;20452;-71
2021/03/15 08:50:57;;;;;;;7.20;4.70;;;;;;;;;;8255892;28;20630;-71
2021/03/15 08:55:02;;;;;;;10.48;6.20;;;;;;;;;;8254628;28;20045;-69
2021/03/15 08:59:09;;;;;;;10.32;5.50;;;;;;;;;;8263872;28;20459;-70
2021/03/15 09:03:14;;;;;;;8.40;5.40;;;;;;;;;;8262477;28;20341;-70
2021/03/15 09:07:43;;;;;;;10.82;6.38;;;;;;;;;;8263667;28;20472;-69
2021/03/15 09:11:58;;;;;;;8.23;5.75;;;;;;;;;;8265248;28;20368;-70
2021/03/15 09:16:05;;;;;;;6.95;4.25;;;;;;;;;;8262796;28;20426;-70
2021/03/15 09:20:17;;;;;;;11.98;6.50;;;;;;;;;;8246652;28;20357;-69
2021/03/15 09:24:48;;;;;;;9.93;5.80;;;;;;;;;;8261714;28;20475;-69
2021/03/15 09:28:55;;;;;;;10.32;5.47;;;;;;;;;;8262651;28;20067;-70
2021/03/15 09:32:58;;;;;;;13.18;5.90;;;;;;;;;;8261737;28;20413;-70
2021/03/15 09:37:06;;;;;;;8.63;5.63;;;;;;;;;;8260797;28;20056;-69
2021/03/15 09:41:11;;;;;;;10.68;6.35;;;;;;;;;;8244069;28;20463;-69
2021/03/15 09:45:30;;;;;;;12.30;6.35;;;;;;;;;;8258741;28;20573;-71
2021/03/15 09:49:44;;;;;;;37.90;20.33;;;;;;;;;;8244579;28;20067;-70
2021/03/15 09:53:58;;;;;;;14.77;8.18;;;;;;;;;;8246218;28;20357;-70
2021/03/15 09:58:16;;;;;;;15.88;7.93;;;;;;;;;;8261744;28;20479;-69
2021/03/15 10:02:29;;;;;;;18.67;7.72;;;;;;;;;;8245891;28;20386;-70
2021/03/15 10:06:55;;;;;;;12.88;5.80;;;;;;;;;;8259155;28;20483;-69
2021/03/15 10:11:19;;;;;;;9.52;5.38;;;;;;;;;;8260408;28;20410;-70
2021/03/15 10:15:51;;;;;;;8.13;5.22;;;;;;;;;;8259425;28;20068;-69
2021/03/15 10:20:34;;;;;;;8.95;5.00;;;;;;;;;;8262906;28;20068;-69
2021/03/15 10:24:43;;;;;;;10.75;5.40;;;;;;;;;;8260118;28;20468;-70
2021/03/15 10:28:53;;;;;;;10.40;5.85;;;;;;;;;;8260001;28;20375;-69
2021/03/15 10:33:03;;;;;;;14.13;6.78;;;;;;;;;;8261672;28;20478;-69
2021/03/15 10:37:12;;;;;;;17.10;7.05;;;;;;;;;;8258903;28;20075;-69
2021/03/15 10:41:26;;;;;;;35.92;17.08;;;;;;;;;;8258838;28;20351;-70
2021/03/15 10:45:34;;;;;;;17.85;7.20;;;;;;;;;;8260098;28;20353;-70
2021/03/15 10:49:44;;;;;;;17.85;8.73;;;;;;;;;;8260836;28;20347;-71
2021/03/15 10:54:32;;;;;;;10.20;4.90;;;;;;;;;;8258641;28;20456;-70
2021/03/15 10:58:39;;;;;;;13.15;5.35;;;;;;;;;;8259962;28;20349;-69
2021/03/15 11:02:50;;;;;;;30.02;8.95;;;;;;;;;;8259256;28;20464;-69
2021/03/15 11:06:57;;;;;;;42.47;12.77;;;;;;;;;;8242792;28;20384;-70
2021/03/15 11:11:30;;;;;;;10.55;5.45;;;;;;;;;;8257810;28;20368;-69
2021/03/15 11:15:41;;;;;;;10.60;5.20;;;;;;;;;;8258305;28;20375;-70
2021/03/15 11:20:13;;;;;;;10.57;6.40;;;;;;;;;;8260861;28;20609;-69
2021/03/15 11:24:28;;;;;;;226.50;104.53;;;;;;;;;;8257736;28;20482;-70
2021/03/15 11:28:47;;;;;;;168.63;90.45;;;;;;;;;;8242645;28;20357;-69
2021/03/15 11:33:11;;;;;;;160.95;97.50;;;;;;;;;;8274072;28;20053;-69
2021/03/15 11:37:48;;;;;;;77.88;51.20;;;;;;;;;;8273824;28;20483;-70
2021/03/15 11:41:54;;;;;;;16.58;10.68;;;;;;;;;;8240557;28;20394;-70
2021/03/15 11:46:02;;;;;;;30.17;22.08;;;;;;;;;;8275286;28;20481;-71
2021/03/15 11:50:08;;;;;;;100.70;46.45;;;;;;;;;;8273177;28;20079;-70
2021/03/15 11:54:24;;;;;;;14.00;6.68;;;;;;;;;;8256867;28;20486;-70
2021/03/15 11:58:29;;;;;;;8.15;4.22;;;;;;;;;;8258880;28;20364;-70
2021/03/15 12:02:38;;;;;;;14.85;7.07;;;;;;;;;;8259192;28;20471;-70
2021/03/15 12:06:47;;;;;;;22.70;7.53;;;;;;;;;;8241189;28;20459;-70
2021/03/15 12:11:00;;;;;;;61.83;26.58;;;;;;;;;;8256199;28;20207;-71
2021/03/15 12:15:13;;;;;;;14.00;7.10;;;;;;;;;;8256058;28;20382;-70
2021/03/15 12:19:39;;;;;;;16.50;7.75;;;;;;;;;;8257077;28;20406;-70
2021/03/15 12:23:54;;;;;;;70.07;34.83;;;;;;;;;;8257313;28;20479;-70
2021/03/15 12:27:59;;;;;;;37.00;18.05;;;;;;;;;;8256998;28;20456;-71
2021/03/15 12:32:05;;;;;;;9.20;3.40;;;;;;;;;;8256982;28;20497;-70
2021/03/15 12:36:10;;;;;;;45.60;23.25;;;;;;;;;;8256098;28;20068;-71
2021/03/15 12:40:17;;;;;;;40.88;21.73;;;;;;;;;;8256845;28;20472;-70
2021/03/15 12:44:25;;;;;;;46.55;22.90;;;;;;;;;;8254858;28;20049;-70
2021/03/15 12:48:37;;;;;;;17.75;9.82;;;;;;;;;;8241756;28;20458;-69
2021/03/15 12:52:43;;;;;;;19.52;7.82;;;;;;;;;;8240758;28;20498;-72
2021/03/15 12:57:13;;;;;;;6.53;3.50;;;;;;;;;;8257960;28;20470;-70
2021/03/15 13:01:31;;;;;;;9.57;3.65;;;;;;;;;;8256828;28;20375;-71
2021/03/15 13:05:37;;;;;;;7.70;3.45;;;;;;;;;;8256031;28;20394;-71
2021/03/15 13:10:17;;;;;;;6.30;3.85;;;;;;;;;;8253251;28;20448;-70
2021/03/15 13:14:28;;;;;;;9.55;3.97;;;;;;;;;;8237236;28;20342;-70
2021/03/15 13:18:45;;;;;;;5.72;3.03;;;;;;;;;;8223368;28;20495;-70
2021/03/15 13:22:51;;;;;;;494.00;223.18;;;;;;;;;;8238573;28;20591;-69
2021/03/15 13:27:05;;;;;;;12.25;5.90;;;;;;;;;;8239105;28;20388;-71
2021/03/15 13:31:17;;;;;;;29.80;11.60;;;;;;;;;;8222919;28;20376;-70
2021/03/15 13:35:27;;;;;;;10.57;6.43;;;;;;;;;;8223081;28;20452;-71
2021/03/15 13:39:32;;;;;;;14.38;5.95;;;;;;;;;;8224077;28;20500;-71
2021/03/15 13:43:39;;;;;;;290.85;149.55;;;;;;;;;;8224900;28;20463;-70
2021/03/15 13:47:50;;;;;;;13.73;6.45;;;;;;;;;;8245432;28;20337;-71
2021/03/15 13:51:58;;;;;;;9.73;4.05;;;;;;;;;;8231868;28;20490;-71
2021/03/15 13:56:09;;;;;;;10.07;4.72;;;;;;;;;;8245907;28;20419;-70
2021/03/15 14:00:21;;;;;;;29.17;18.13;;;;;;;;;;8228010;28;20571;-70
2021/03/15 14:04:46;;;;;;;105.50;34.15;;;;;;;;;;8226958;28;20459;-70
2021/03/15 14:08:54;;;;;;;23.90;9.23;;;;;;;;;;8227500;28;20487;-71
2021/03/15 14:13:01;;;;;;;102.00;36.85;;;;;;;;;;8243395;28;20365;-71
2021/03/15 14:17:08;;;;;;;6.38;3.83;;;;;;;;;;8227428;28;20061;-71
2021/03/15 14:21:16;;;;;;;89.35;34.28;;;;;;;;;;8243922;28;20376;-70
2021/03/15 14:25:24;;;;;;;11.52;4.63;;;;;;;;;;8227332;28;20379;-72
2021/03/15 14:29:57;;;;;;;12.00;6.13;;;;;;;;;;8227005;28;20473;-71
2021/03/15 14:34:08;;;;;;;39.40;16.42;;;;;;;;;;8227752;28;20360;-70
2021/03/15 14:38:25;;;;;;;23.98;10.90;;;;;;;;;;8228150;28;20388;-70
2021/03/15 14:42:34;;;;;;;7.30;4.50;;;;;;;;;;8225431;28;20472;-71
2021/03/15 14:47:08;;;;;;;33.42;14.18;;;;;;;;;;8222424;28;20061;-71
2021/03/15 14:51:29;;;;;;;117.40;48.03;;;;;;;;;;8215866;28;20389;-71
2021/03/15 14:55:47;;;;;;;40.97;17.90;;;;;;;;;;8226352;28;20486;-73
2021/03/15 14:59:56;;;;;;;38.92;18.90;;;;;;;;;;8228058;28;20345;-70
2021/03/15 15:04:06;;;;;;;16.60;7.75;;;;;;;;;;8229464;28;20464;-71
2021/03/15 15:08:20;;;;;;;21.80;9.65;;;;;;;;;;8196056;28;20456;-72
2021/03/15 15:12:41;;;;;;;19.30;9.52;;;;;;;;;;8227756;28;20491;-70
2021/03/15 15:17:07;;;;;;;9.68;4.28;;;;;;;;;;8213692;28;20364;-70
2021/03/15 15:21:21;;;;;;;12.80;5.80;;;;;;;;;;8226394;28;20480;-70
2021/03/15 15:25:42;;;;;;;19.77;8.65;;;;;;;;;;8222461;28;20476;-71
2021/03/15 15:29:53;;;;;;;25.00;8.18;;;;;;;;;;8221742;28;20384;-72
2021/03/15 15:34:07;;;;;;;29.77;13.23;;;;;;;;;;8222008;28;20487;-70
2021/03/15 15:38:23;;;;;;;25.33;11.55;;;;;;;;;;8207437;28;20375;-71
2021/03/15 15:42:39;;;;;;;7.80;5.07;;;;;;;;;;8205763;28;20342;-70
2021/03/15 15:46:54;;;;;;;11.02;4.72;;;;;;;;;;8207023;28;20403;-71
2021/03/15 15:51:12;;;;;;;15.00;6.25;;;;;;;;;;8220771;28;20408;-70
2021/03/15 15:55:33;;;;;;;18.77;7.53;;;;;;;;;;8207538;28;20472;-70
2021/03/15 15:59:42;;;;;;;25.38;10.77;;;;;;;;;;8224403;28;20054;-70
2021/03/15 16:03:54;;;;;;;22.03;9.57;;;;;;;;;;8223006;28;20467;-70
2021/03/15 16:08:05;;;;;;;46.63;20.10;;;;;;;;;;8222742;28;20057;-70
2021/03/15 16:12:15;;;;;;;42.25;19.83;;;;;;;;;;8223696;28;20476;-70
2021/03/15 16:16:35;;;;;;;52.75;21.50;;;;;;;;;;8224063;28;20464;-70
2021/03/15 16:20:45;;;;;;;46.05;18.45;;;;;;;;;;8210132;28;20345;-71
2021/03/15 16:24:55;;;;;;;36.50;15.55;;;;;;;;;;8226000;28;20053;-71
2021/03/15 16:29:04;;;;;;;44.25;17.45;;;;;;;;;;8223895;28;20452;-71
2021/03/15 16:33:17;;;;;;;53.75;21.02;;;;;;;;;;8222798;28;20605;-71
2021/03/15 16:37:30;;;;;;;94.15;40.83;;;;;;;;;;8224532;28;20494;-70
2021/03/15 16:41:39;;;;;;;78.05;34.72;;;;;;;;;;8224886;28;20365;-70
2021/03/15 16:45:54;;;;;;;100.15;50.17;;;;;;;;;;8224976;28;20049;-70
2021/03/15 16:50:48;;;;;;;57.88;25.58;;;;;;;;;;8225146;28;20072;-71
2021/03/15 16:54:57;;;;;;;24.63;12.48;;;;;;;;;;8239458;28;20484;-71
2021/03/15 16:59:12;;;;;;;23.92;9.07;;;;;;;;;;8226142;28;20351;-72
2021/03/15 17:03:22;;;;;;;16.13;9.07;;;;;;;;;;8223672;28;20388;-70
2021/03/15 17:07:34;;;;;;;16.05;7.32;;;;;;;;;;8231941;28;20348;-70
2021/03/15 17:11:46;;;;;;;10.07;4.47;;;;;;;;;;8230408;28;20472;-70
2021/03/15 17:16:04;;;;;;;10.63;4.05;;;;;;;;;;8224057;28;20361;-70
2021/03/15 17:20:13;;;;;;;30.23;8.63;;;;;;;;;;8230057;28;20447;-71
2021/03/15 17:24:28;;;;;;;23.45;6.57;;;;;;;;;;8212603;28;20429;-70
2021/03/15 17:28:35;;;;;;;32.58;9.82;;;;;;;;;;8227645;28;20459;-70
2021/03/15 17:32:42;;;;;;;213.55;72.65;;;;;;;;;;8230475;28;20423;-70
2021/03/15 17:36:54;;;;;;;191.77;60.00;;;;;;;;;;8231345;28;20061;-71
2021/03/15 17:41:03;;;;;;;21.92;8.23;;;;;;;;;;8229156;28;20499;-70
2021/03/15 17:45:11;;;;;;;25.08;10.88;;;;;;;;;;8227284;28;20372;-69
2021/03/15 17:49:23;;;;;;;55.80;23.27;;;;;;;;;;8227031;28;20364;-69
2021/03/15 17:53:33;;;;;;;56.75;25.45;;;;;;;;;;8228986;28;20360;-70
2021/03/15 17:57:43;;;;;;;52.65;24.15;;;;;;;;;;8230917;28;20384;-70
2021/03/15 18:01:56;;;;;;;70.95;26.25;;;;;;;;;;8228538;28;20075;-70
2021/03/15 18:06:04;;;;;;;132.30;52.92;;;;;;;;;;8229672;28;20388;-70
2021/03/15 18:10:13;;;;;;;124.05;52.65;;;;;;;;;;8227304;28;20318;-69
2021/03/15 18:14:25;;;;;;;178.18;67.38;;;;;;;;;;8228531;28;20383;-69
2021/03/15 18:18:37;;;;;;;117.05;47.70;;;;;;;;;;8229417;28;20361;-69
2021/03/15 18:22:51;;;;;;;134.20;45.50;;;;;;;;;;8229160;28;20333;-70
2021/03/15 18:27:02;;;;;;;114.80;34.97;;;;;;;;;;8228422;28;20054;-69
2021/03/15 18:31:18;;;;;;;136.35;45.58;;;;;;;;;;8230004;28;20664;-70
2021/03/15 18:35:26;;;;;;;198.38;65.45;;;;;;;;;;8226965;28;20461;-69
2021/03/15 18:39:43;;;;;;;102.57;34.40;;;;;;;;;;8227852;28;20116;-70
2021/03/15 18:44:09;;;;;;;95.90;37.30;;;;;;;;;;8241805;28;20053;-69
2021/03/15 18:48:38;;;;;;;142.13;47.80;;;;;;;;;;8225080;28;20487;-69
2021/03/15 18:53:00;;;;;;;162.63;54.10;;;;;;;;;;8229229;28;20072;-69
2021/03/15 18:57:19;;;;;;;96.30;35.15;;;;;;;;;;8226827;28;20372;-69
2021/03/15 19:01:28;;;;;;;84.95;34.25;;;;;;;;;;8227435;28;20102;-69
2021/03/15 19:06:05;;;;;;;79.35;30.52;;;;;;;;;;8227271;28;20067;-68
2021/03/15 19:10:11;;;;;;;105.72;33.60;;;;;;;;;;8226632;28;20380;-69
2021/03/15 19:14:22;;;;;;;97.43;36.63;;;;;;;;;;8225280;28;20053;-68
2021/03/15 19:18:40;;;;;;;80.13;29.73;;;;;;;;;;8229530;28;20444;-68
2021/03/15 19:23:03;;;;;;;111.85;36.42;;;;;;;;;;8228950;28;20046;-69
2021/03/15 19:27:13;;;;;;;107.72;38.70;;;;;;;;;;8225736;28;20397;-68
2021/03/15 19:31:20;;;;;;;106.38;38.78;;;;;;;;;;8227915;28;20337;-68
2021/03/15 19:35:32;;;;;;;265.63;92.22;;;;;;;;;;8228914;28;20068;-68
2021/03/15 19:44:18;;;;;;;117.32;43.50;;;;;;;;;;8224748;28;20360;-67
2021/03/15 19:48:41;;;;;;;152.90;55.83;;;;;;;;;;8225436;28;20456;-67
2021/03/15 19:53:01;;;;;;;177.73;62.58;;;;;;;;;;8225780;28;20606;-68
2021/03/15 19:57:11;;;;;;;154.93;56.85;;;;;;;;;;8224501;28;20071;-68
2021/03/15 20:01:27;;;;;;;132.25;49.42;;;;;;;;;;8225104;28;20045;-68
2021/03/15 20:05:37;;;;;;;135.32;53.08;;;;;;;;;;8226000;28;20456;-67
2021/03/15 20:16:11;;;;;;;123.07;49.03;;;;;;;;;;8225599;28;20049;-67
2021/03/15 20:20:15;;;;;;;143.10;53.33;;;;;;;;;;8225676;28;20503;-67
2021/03/15 20:24:19;;;;;;;133.23;51.67;;;;;;;;;;8226284;28;20452;-67
2021/03/15 20:28:23;;;;;;;111.68;43.90;;;;;;;;;;8224973;28;20415;-67
2021/03/15 20:32:27;;;;;;;111.28;43.15;;;;;;;;;;8225242;28;20481;-68
2021/03/15 20:36:35;;;;;;;100.10;40.42;;;;;;;;;;8224554;28;20108;-68
2021/03/15 20:40:44;;;;;;;101.57;38.25;;;;;;;;;;8225036;28;20491;-67
2021/03/15 20:44:49;;;;;;;104.75;35.85;;;;;;;;;;8223733;28;20441;-67
2021/03/15 20:48:54;;;;;;;99.18;36.72;;;;;;;;;;8225269;28;20447;-67
2021/03/15 20:53:02;;;;;;;89.35;32.17;;;;;;;;;;8225057;28;20471;-67
2021/03/15 20:57:07;;;;;;;86.32;30.50;;;;;;;;;;8224929;28;20677;-65
2021/03/15 21:01:11;;;;;;;80.22;31.58;;;;;;;;;;8225059;28;20364;-67
2021/03/15 21:05:19;;;;;;;86.90;33.63;;;;;;;;;;8225017;28;20496;-67
2021/03/15 21:09:29;;;;;;;146.85;47.75;;;;;;;;;;8223905;28;20075;-67
2021/03/15 21:13:34;;;;;;;103.93;39.05;;;;;;;;;;8224376;28;20367;-68
2021/03/15 21:17:40;;;;;;;93.43;34.08;;;;;;;;;;8224558;28;20475;-68
2021/03/15 21:21:46;;;;;;;95.00;35.00;;;;;;;;;;8224681;28;20358;-67
2021/03/15 21:25:51;;;;;;;94.63;35.47;;;;;;;;;;8225371;28;20456;-68
2021/03/15 21:29:56;;;;;;;90.00;35.10;;;;;;;;;;8223977;28;20487;-68
2021/03/15 21:34:00;;;;;;;87.35;32.70;;;;;;;;;;8224522;28;20376;-68
2021/03/15 21:38:06;;;;;;;90.30;33.05;;;;;;;;;;8223669;28;20418;-67
2021/03/15 21:42:12;;;;;;;90.13;29.98;;;;;;;;;;8223618;28;20375;-68
2021/03/15 21:46:16;;;;;;;90.75;31.83;;;;;;;;;;8223998;28;20041;-68
2021/03/15 21:50:26;;;;;;;85.90;31.67;;;;;;;;;;8225902;28;20474;-67
2021/03/15 21:54:50;;;;;;;85.45;33.10;;;;;;;;;;8224488;28;20427;-70
2021/03/15 21:58:55;;;;;;;98.28;35.95;;;;;;;;;;8225321;28;20068;-69
2021/03/15 22:03:00;;;;;;;110.28;43.28;;;;;;;;;;8223426;28;20365;-67
2021/03/15 22:07:04;;;;;;;119.40;51.72;;;;;;;;;;8229434;28;20452;-67
2021/03/15 22:11:09;;;;;;;134.57;49.33;;;;;;;;;;8229896;28;20480;-68
2021/03/15 22:15:16;;;;;;;121.65;44.75;;;;;;;;;;8227783;28;20342;-67
2021/03/15 22:19:21;;;;;;;112.77;42.33;;;;;;;;;;8229271;28;20072;-67
2021/03/15 22:23:27;;;;;;;111.38;40.75;;;;;;;;;;8228547;28;21000;-68
2021/03/15 22:27:37;;;;;;;120.72;42.22;;;;;;;;;;8227880;28;20387;-68
2021/03/15 22:31:43;;;;;;;121.25;39.35;;;;;;;;;;8231264;28;20057;-68
2021/03/15 22:35:50;;;;;;;116.65;40.92;;;;;;;;;;8225868;28;20380;-68
2021/03/15 22:39:58;;;;;;;130.90;44.22;;;;;;;;;;8226853;28;20503;-68
2021/03/15 22:44:03;;;;;;;125.30;44.25;;;;;;;;;;8226734;28;20372;-67
2021/03/15 22:48:13;;;;;;;139.05;43.42;;;;;;;;;;8228316;28;20452;-67
2021/03/15 22:52:27;;;;;;;143.40;45.15;;;;;;;;;;8254024;28;20369;-67
2021/03/15 22:56:35;;;;;;;124.72;43.75;;;;;;;;;;8260895;28;20075;-68
2021/03/15 23:00:40;;;;;;;132.77;44.97;;;;;;;;;;8261050;28;20486;-69
2021/03/15 23:04:44;;;;;;;115.90;40.20;;;;;;;;;;8260638;28;20386;-67
2021/03/15 23:08:49;;;;;;;126.15;43.22;;;;;;;;;;8259562;28;20045;-67
2021/03/15 23:12:56;;;;;;;150.60;53.55;;;;;;;;;;8261254;28;20114;-67
2021/03/15 23:17:01;;;;;;;116.45;42.25;;;;;;;;;;8260913;28;20071;-68
2021/03/15 23:21:04;;;;;;;122.78;42.20;;;;;;;;;;8259948;28;20415;-67
2021/03/15 23:25:12;;;;;;;139.15;46.15;;;;;;;;;;8259509;28;20391;-67
2021/03/15 23:29:19;;;;;;;117.85;44.58;;;;;;;;;;8259901;28;20071;-67
2021/03/15 23:33:28;;;;;;;113.65;40.53;;;;;;;;;;8262115;28;20367;-68
2021/03/15 23:37:33;;;;;;;123.50;39.20;;;;;;;;;;8259561;28;20470;-67
2021/03/15 23:41:37;;;;;;;109.75;36.85;;;;;;;;;;8260268;28;20379;-67
2021/03/15 23:45:46;;;;;;;99.15;35.08;;;;;;;;;;8256968;28;20505;-68
2021/03/15 23:49:50;;;;;;;78.97;28.75;;;;;;;;;;8259347;28;20588;-68
2021/03/15 23:54:17;;;;;;;69.53;25.20;;;;;;;;;;8258880;28;20471;-68
2021/03/15 23:58:42;;;;;;;61.63;24.92;;;;;;;;;;8257209;28;20455;-67
